FSIA/SEZ METAR and TAF weather

Enter ICAO airport designator
Station Type Date Time Source
FSIA METAR 2018/10/19 16:00 UTC NOAA

FSIA 191600Z VRB01KT 9999 FEW020 27/22 Q1011 NOSIG


Station Type Date Time Source
FSIA Decoded METAR 2018/10/19 16:00 UTC NOAA

Seychelles Inter-National Airport, Seychelles (FSIA) 04-40S 055-31E 3M
Oct 19, 2018 - 12:00 PM EDT / 2018.10.19 1600 UTC
Wind: Variable at 1 MPH (1 KT):0
Visibility: greater than 7 mile(s):0
Sky conditions: mostly clear
Temperature: 80 F (27 C)
Dew Point: 71 F (22 C)
Relative Humidity: 74%
Pressure (altimeter): 29.85 in. Hg (1011 hPa)
ob: FSIA 191600Z VRB01KT 9999 FEW020 27/22 Q1011 NOSIG
cycle: 16

Station Type Date Time Source
FSIA TAF 2018/10/19 12:12 UTC NOAA

TAF TAF FSIA 191100Z 1912/2012 17010KT 9999 FEW020
TEMPO 1918/1922 8000 SHRA BKN018
BECMG 1919/1921 11005KT


Example: see airport list